Pamlico — WX6900 — position and weather

sailwx.info

Track history (hours):
 
Tides and Currents Weather Stations Pressure Air Temp Water Temp Dewpoint Dewpoint Depression Visibility Wind Speed Wind Dir Waves Ship Positions

Pamlico

Owner: PCS Phosphate, AURORA, NC. More information available from US FCC via Universal Licensing System and Coast Guard Vessel Documentation Center.

Last reported at 2017-Sep-24 20:31 UTC. Time now 2017-Sep-26 14:59 UTC.
Position N 35°01' W 076°39'.

Length 30 m; draft 2 m.

Type: Tug. MMSI: 367361220.

Date/timePositionNaut miles runAvg speedWind from/ knotsBaromVisibWave heightAir tempDewpointWater temp
2017-Sep-24 20:31N 35°01' W 076°39'0 7.2
2017-Sep-24 20:29N 35°01' W 076°39'3 6.7
2017-Sep-24 20:00N 34°58' W 076°41'3 6.4
2017-Sep-24 19:31N 34°56' W 076°39'3 6.2
2017-Sep-24 19:01N 34°53' W 076°41'3 6.6
2017-Sep-24 18:31N 34°50' W 076°41'3 6.6
2017-Sep-24 18:01N 34°46' W 076°41'3 5.5
2017-Sep-24 17:31N 34°44' W 076°42'1 1.7
2017-Sep-24 17:00N 34°43' W 076°41'3 5.5
2017-Sep-24 16:30N 34°45' W 076°40'4 8.0
2017-Sep-24 16:01N 34°49' W 076°41'4 7.0
2017-Sep-24 15:31N 34°53' W 076°41'4 7.5
2017-Sep-24 15:01N 34°56' W 076°39'  
2017-Sep-22 02:01N 34°48' W 076°41'2 4.8
2017-Sep-22 01:31N 34°50' W 076°41'2 4.8
2017-Sep-22 01:00N 34°52' W 076°42'2 4.7
2017-Sep-22 00:31N 34°54' W 076°40'3 5.9
2017-Sep-22 00:01N 34°57' W 076°41'3 5.8
2017-Sep-21 23:27N 35°01' W 076°40'4 7.1
2017-Sep-21 22:57N 35°03' W 076°37'5 7.0
2017-Sep-21 22:15N 35°05' W 076°32'4 7.2
2017-Sep-21 21:43N 35°09' W 076°30'14 0.6
2017-Sep-20 23:50N 34°59' W 076°41'2 6.4
2017-Sep-20 23:30N 34°57' W 076°40'3 5.6
2017-Sep-20 23:00N 34°54' W 076°40'2 4.9
2017-Sep-20 22:31N 34°52' W 076°41'3 5.1
2017-Sep-20 22:01N 34°49' W 076°41'3 5.4
2017-Sep-20 21:31N 34°47' W 076°41'3 6.6
2017-Sep-20 21:00N 34°43' W 076°42'0 0.1
2017-Sep-20 20:31N 34°43' W 076°42'0 0.0
2017-Sep-20 20:01N 34°43' W 076°42'0 0.0
2017-Sep-20 19:31N 34°43' W 076°42'0 0.0
2017-Sep-20 19:01N 34°43' W 076°42'0 0.0
2017-Sep-20 18:31N 34°43' W 076°42'0 0.0
2017-Sep-20 18:01N 34°43' W 076°42'0 0.0
2017-Sep-20 17:31N 34°43' W 076°42'0 0.0
2017-Sep-20 17:00N 34°43' W 076°42'0 0.0
2017-Sep-20 16:31N 34°43' W 076°42'0 0.0
2017-Sep-20 16:01N 34°43' W 076°42'0 0.0
2017-Sep-20 15:31N 34°43' W 076°42'0 0.0
2017-Sep-20 15:00N 34°43' W 076°42'1 0.8
2017-Sep-20 14:00N 34°44' W 076°41'4 7.1
2017-Sep-20 13:30N 34°48' W 076°41'3 6.1
2017-Sep-20 13:01N 34°51' W 076°41'3 6.1
2017-Sep-20 12:31N 34°54' W 076°41'3 6.3
2017-Sep-20 12:01N 34°57' W 076°40'4 6.2
2017-Sep-20 11:19N 35°01' W 076°40'3 8.4
2017-Sep-20 10:58N 35°02' W 076°37'5 8.2
2017-Sep-20 10:22N 35°05' W 076°32'3 8.4
2017-Sep-20 10:01N 35°08' W 076°30'4 7.4
2017-Sep-20 09:30N 35°11' W 076°33'11 1.0
2017-Sep-19 22:40N 35°01' W 076°39'3 6.5
2017-Sep-19 22:08N 34°58' W 076°41'1 6.2
2017-Sep-19 22:01N 34°57' W 076°41'3 5.6
2017-Sep-19 21:31N 34°55' W 076°40'2 4.8
2017-Sep-19 21:01N 34°53' W 076°41'2 4.7
2017-Sep-19 20:31N 34°50' W 076°41'2 4.3
2017-Sep-19 20:01N 34°48' W 076°41'2 4.8
2017-Sep-19 19:31N 34°46' W 076°41'3 5.6
2017-Sep-19 19:00N 34°43' W 076°42'0 0.3
2017-Sep-19 18:31N 34°43' W 076°42'0 0.0
2017-Sep-19 18:01N 34°43' W 076°42'0 0.0
2017-Sep-19 17:30N 34°43' W 076°42'0 0.0
2017-Sep-19 17:01N 34°43' W 076°42'0 0.0
2017-Sep-19 16:31N 34°43' W 076°42'0 0.0
2017-Sep-19 16:01N 34°43' W 076°42'0 0.0
2017-Sep-19 15:31N 34°43' W 076°42'0 0.0
2017-Sep-19 15:01N 34°43' W 076°42'0 0.0
2017-Sep-19 14:31N 34°43' W 076°42'0 0.0
2017-Sep-19 14:00N 34°43' W 076°42'0 0.0
2017-Sep-19 13:31N 34°43' W 076°42'0 0.0
2017-Sep-19 13:01N 34°43' W 076°42'0 0.0
2017-Sep-19 12:31N 34°43' W 076°42'0 0.0
2017-Sep-19 12:00N 34°43' W 076°42'0 0.0
2017-Sep-19 11:31N 34°43' W 076°42'1 1.3
2017-Sep-19 11:01N 34°43' W 076°41'0 0.1
2017-Sep-19 10:31N 34°43' W 076°41'0 0.0
2017-Sep-19 10:01N 34°43' W 076°41'0 0.0
2017-Sep-19 09:31N 34°43' W 076°41'0 0.0
2017-Sep-19 09:01N 34°43' W 076°41'0 0.0
2017-Sep-19 08:31N 34°43' W 076°41'2 3.4
2017-Sep-19 08:01N 34°44' W 076°41'4 7.4
2017-Sep-19 07:31N 34°48' W 076°41'4 8.7
2017-Sep-19 07:00N 34°52' W 076°42'4 8.0
2017-Sep-19 06:31N 34°56' W 076°39'3 0.3
2017-Sep-18 19:36N 34°59' W 076°42'1 7.7
2017-Sep-18 19:28N 34°58' W 076°41'3 6.6
2017-Sep-18 19:00N 34°55' W 076°40'3 5.7
2017-Sep-18 18:31N 34°53' W 076°42'3 5.5
2017-Sep-18 18:00N 34°50' W 076°41'3 5.2
2017-Sep-18 17:30N 34°47' W 076°41'3 6.0
2017-Sep-18 17:01N 34°44' W 076°41'1 1.9
2017-Sep-18 16:30N 34°43' W 076°42'0 0.0
2017-Sep-18 16:01N 34°43' W 076°42'3 5.6
2017-Sep-18 15:31N 34°46' W 076°41'3 6.6
2017-Sep-18 15:01N 34°49' W 076°41'3 6.3
2017-Sep-18 14:31N 34°53' W 076°42'3 5.4
2017-Sep-18 13:59N 34°55' W 076°40'3 5.5
2017-Sep-18 13:30N 34°57' W 076°41'1 0.1
2017-Sep-17 23:27N 34°58' W 076°42'3 6.8
2017-Sep-17 23:00N 34°56' W 076°39'3 6.6
2017-Sep-17 22:30N 34°53' W 076°41'3 6.9
2017-Sep-17 22:00N 34°50' W 076°41'3 6.8
2017-Sep-17 21:31N 34°46' W 076°41'3 6.8
2017-Sep-17 21:00N 34°43' W 076°42'0 0.8
2017-Sep-17 20:30N 34°43' W 076°42'0 0.0
2017-Sep-17 20:00N 34°43' W 076°42'0 0.0
2017-Sep-17 19:30N 34°43' W 076°42'0 0.0
2017-Sep-17 19:01N 34°43' W 076°42'0 0.0
2017-Sep-17 18:30N 34°43' W 076°42'0 0.0
2017-Sep-17 18:01N 34°43' W 076°42'0 0.0
2017-Sep-17 17:31N 34°43' W 076°42'0 0.0
2017-Sep-17 17:01N 34°43' W 076°42'0 0.0
2017-Sep-17 16:31N 34°43' W 076°42'0 0.0
2017-Sep-17 16:01N 34°43' W 076°42'0 0.0
2017-Sep-17 15:31N 34°43' W 076°42'0 0.0
2017-Sep-17 15:01N 34°43' W 076°42'0 0.0
2017-Sep-17 14:31N 34°43' W 076°42'0 0.0
2017-Sep-17 14:01N 34°43' W 076°42'0 0.0
2017-Sep-17 13:30N 34°43' W 076°42'0 0.0
2017-Sep-17 13:01N 34°43' W 076°42'0 0.0
2017-Sep-17 12:30N 34°43' W 076°42'0 0.0
2017-Sep-17 12:01N 34°43' W 076°42'0 0.0
2017-Sep-17 11:30N 34°43' W 076°42'0 0.0
2017-Sep-17 11:01N 34°43' W 076°42'0 0.0
2017-Sep-17 10:30N 34°43' W 076°42'0 0.0
2017-Sep-17 10:01N 34°43' W 076°42'0 0.0
2017-Sep-17 09:31N 34°43' W 076°42'0 0.0
2017-Sep-17 09:01N 34°43' W 076°42'0 0.0
2017-Sep-17 08:30N 34°43' W 076°42'1 1.1
2017-Sep-17 08:01N 34°43' W 076°41'0 0.1
2017-Sep-17 07:31N 34°43' W 076°41'1 2.8
2017-Sep-17 07:00N 34°44' W 076°41'3 6.8
2017-Sep-17 06:31N 34°48' W 076°41'4 8.6
2017-Sep-17 06:00N 34°52' W 076°41'4 7.9
2017-Sep-17 05:30N 34°55' W 076°39'4 7.4
2017-Sep-17 04:58N 34°59' W 076°41'9 8.6
2017-Sep-17 03:56N 35°04' W 076°33'8 6.2
2017-Sep-17 02:37N 35°12' W 076°35'15 1.4
2017-Sep-16 15:58N 34°59' W 076°42'3 6.7
2017-Sep-16 15:30N 34°56' W 076°39'3 6.0
2017-Sep-16 15:00N 34°54' W 076°41'3 5.5
2017-Sep-16 14:30N 34°51' W 076°41'3 5.4
2017-Sep-16 14:00N 34°48' W 076°41'3 5.7
2017-Sep-16 13:31N 34°45' W 076°40'2 4.5
2017-Sep-16 13:00N 34°43' W 076°42'0 0.2
2017-Sep-16 12:31N 34°43' W 076°42'0 0.2
2017-Sep-16 12:01N 34°43' W 076°42'2 4.4
2017-Sep-16 11:31N 34°45' W 076°40'3 5.8
2017-Sep-16 11:00N 34°48' W 076°41'2 4.4
2017-Sep-16 10:30N 34°50' W 076°41'1 1.7
2017-Sep-16 09:59N 34°51' W 076°41'0 0.6
2017-Sep-16 09:30N 34°52' W 076°41'2 4.5
2017-Sep-16 08:58N 34°54' W 076°41'3 5.6
2017-Sep-16 08:30N 34°56' W 076°39'3 6.4
2017-Sep-16 08:01N 34°59' W 076°41'6 7.2
2017-Sep-16 07:14N 35°03' W 076°36'8 6.7
2017-Sep-16 06:02N 35°09' W 076°30'0 7.6
2017-Sep-16 06:01N 35°09' W 076°31'4 7.5
2017-Sep-16 05:31N 35°11' W 076°34'3 5.7
2017-Sep-16 05:01N 35°14' W 076°35'3 5.7
2017-Sep-16 04:30N 35°17' W 076°37'3 6.7
2017-Sep-16 04:00N 35°20' W 076°37'3 5.4
2017-Sep-16 03:27N 35°23' W 076°38'25 3.3
2017-Sep-15 19:38N 34°57' W 076°41'1 7.3
2017-Sep-15 19:30N 34°57' W 076°40'3 5.8
2017-Sep-15 18:59N 34°54' W 076°41'3 6.0
2017-Sep-15 18:31N 34°51' W 076°41'3 5.7
2017-Sep-15 18:01N 34°48' W 076°41'3 6.8
2017-Sep-15 17:31N 34°45' W 076°41'2 3.4
2017-Sep-15 17:00N 34°43' W 076°42'0 0.0
2017-Sep-15 16:31N 34°43' W 076°42'2 3.9
2017-Sep-15 16:01N 34°45' W 076°41'3 5.7
2017-Sep-15 15:30N 34°48' W 076°41'3 6.3
2017-Sep-15 15:00N 34°51' W 076°41'3 6.1
2017-Sep-15 14:31N 34°54' W 076°41'3 5.7
2017-Sep-15 14:01N 34°57' W 076°40'11 5.8
2017-Sep-15 12:11N 35°05' W 076°32'2 7.3
2017-Sep-15 11:58N 35°07' W 076°31'3 6.0
2017-Sep-15 11:29N 35°09' W 076°31'14 1.4
2017-Sep-15 01:37N 34°58' W 076°41'1 7.4
2017-Sep-15 01:30N 34°58' W 076°41'3 6.6
2017-Sep-15 01:00N 34°54' W 076°40'3 6.3
2017-Sep-15 00:30N 34°51' W 076°41'4 7.3
2017-Sep-15 00:00N 34°48' W 076°41'4 7.1
2017-Sep-14 23:30N 34°44' W 076°41'1 2.2
2017-Sep-14 23:00N 34°43' W 076°42'0 0.0
2017-Sep-14 22:30N 34°43' W 076°42'1 1.7
2017-Sep-14 22:00N 34°44' W 076°41'3 6.0
2017-Sep-14 21:30N 34°47' W 076°41'2 4.8
2017-Sep-14 21:00N 34°49' W 076°41'  
Track history (hours):
 
Tides and Currents Weather Stations Pressure Air Temp Water Temp Dewpoint Dewpoint Depression Visibility Wind Speed Wind Dir Waves Ship Positions

Pamlico

Owner: PCS Phosphate, AURORA, NC. More information available from US FCC via Universal Licensing System and Coast Guard Vessel Documentation Center.

Last reported at 2017-Sep-24 20:31 UTC. Time now 2017-Sep-26 14:59 UTC.
Position N 35°01' W 076°39'.

Length 30 m; draft 2 m.

Type: Tug. MMSI: 367361220.

Date/timePositionNaut miles runAvg speedWind from/ knotsBaromVisibWave heightAir tempDewpointWater temp
2017-Sep-24 20:31N 35°01' W 076°39'0 7.2
2017-Sep-24 20:29N 35°01' W 076°39'3 6.7
2017-Sep-24 20:00N 34°58' W 076°41'3 6.4
2017-Sep-24 19:31N 34°56' W 076°39'3 6.2
2017-Sep-24 19:01N 34°53' W 076°41'3 6.6
2017-Sep-24 18:31N 34°50' W 076°41'3 6.6
2017-Sep-24 18:01N 34°46' W 076°41'3 5.5
2017-Sep-24 17:31N 34°44' W 076°42'1 1.7
2017-Sep-24 17:00N 34°43' W 076°41'3 5.5
2017-Sep-24 16:30N 34°45' W 076°40'4 8.0
2017-Sep-24 16:01N 34°49' W 076°41'4 7.0
2017-Sep-24 15:31N 34°53' W 076°41'4 7.5
2017-Sep-24 15:01N 34°56' W 076°39'  
2017-Sep-22 02:01N 34°48' W 076°41'2 4.8
2017-Sep-22 01:31N 34°50' W 076°41'2 4.8
2017-Sep-22 01:00N 34°52' W 076°42'2 4.7
2017-Sep-22 00:31N 34°54' W 076°40'3 5.9
2017-Sep-22 00:01N 34°57' W 076°41'3 5.8
2017-Sep-21 23:27N 35°01' W 076°40'4 7.1
2017-Sep-21 22:57N 35°03' W 076°37'5 7.0
2017-Sep-21 22:15N 35°05' W 076°32'4 7.2
2017-Sep-21 21:43N 35°09' W 076°30'14 0.6
2017-Sep-20 23:50N 34°59' W 076°41'2 6.4
2017-Sep-20 23:30N 34°57' W 076°40'3 5.6
2017-Sep-20 23:00N 34°54' W 076°40'2 4.9
2017-Sep-20 22:31N 34°52' W 076°41'3 5.1
2017-Sep-20 22:01N 34°49' W 076°41'3 5.4
2017-Sep-20 21:31N 34°47' W 076°41'3 6.6
2017-Sep-20 21:00N 34°43' W 076°42'0 0.1
2017-Sep-20 20:31N 34°43' W 076°42'0 0.0
2017-Sep-20 20:01N 34°43' W 076°42'0 0.0
2017-Sep-20 19:31N 34°43' W 076°42'0 0.0
2017-Sep-20 19:01N 34°43' W 076°42'0 0.0
2017-Sep-20 18:31N 34°43' W 076°42'0 0.0
2017-Sep-20 18:01N 34°43' W 076°42'0 0.0
2017-Sep-20 17:31N 34°43' W 076°42'0 0.0
2017-Sep-20 17:00N 34°43' W 076°42'0 0.0
2017-Sep-20 16:31N 34°43' W 076°42'0 0.0
2017-Sep-20 16:01N 34°43' W 076°42'0 0.0
2017-Sep-20 15:31N 34°43' W 076°42'0 0.0
2017-Sep-20 15:00N 34°43' W 076°42'1 0.8
2017-Sep-20 14:00N 34°44' W 076°41'4 7.1
2017-Sep-20 13:30N 34°48' W 076°41'3 6.1
2017-Sep-20 13:01N 34°51' W 076°41'3 6.1
2017-Sep-20 12:31N 34°54' W 076°41'3 6.3
2017-Sep-20 12:01N 34°57' W 076°40'4 6.2
2017-Sep-20 11:19N 35°01' W 076°40'3 8.4
2017-Sep-20 10:58N 35°02' W 076°37'5 8.2
2017-Sep-20 10:22N 35°05' W 076°32'3 8.4
2017-Sep-20 10:01N 35°08' W 076°30'4 7.4
2017-Sep-20 09:30N 35°11' W 076°33'11 1.0
2017-Sep-19 22:40N 35°01' W 076°39'3 6.5
2017-Sep-19 22:08N 34°58' W 076°41'1 6.2
2017-Sep-19 22:01N 34°57' W 076°41'3 5.6
2017-Sep-19 21:31N 34°55' W 076°40'2 4.8
2017-Sep-19 21:01N 34°53' W 076°41'2 4.7
2017-Sep-19 20:31N 34°50' W 076°41'2 4.3
2017-Sep-19 20:01N 34°48' W 076°41'2 4.8
2017-Sep-19 19:31N 34°46' W 076°41'3 5.6
2017-Sep-19 19:00N 34°43' W 076°42'0 0.3
2017-Sep-19 18:31N 34°43' W 076°42'0 0.0
2017-Sep-19 18:01N 34°43' W 076°42'0 0.0
2017-Sep-19 17:30N 34°43' W 076°42'0 0.0
2017-Sep-19 17:01N 34°43' W 076°42'0 0.0
2017-Sep-19 16:31N 34°43' W 076°42'0 0.0
2017-Sep-19 16:01N 34°43' W 076°42'0 0.0
2017-Sep-19 15:31N 34°43' W 076°42'0 0.0
2017-Sep-19 15:01N 34°43' W 076°42'0 0.0
2017-Sep-19 14:31N 34°43' W 076°42'0 0.0
2017-Sep-19 14:00N 34°43' W 076°42'0 0.0
2017-Sep-19 13:31N 34°43' W 076°42'0 0.0
2017-Sep-19 13:01N 34°43' W 076°42'0 0.0
2017-Sep-19 12:31N 34°43' W 076°42'0 0.0
2017-Sep-19 12:00N 34°43' W 076°42'0 0.0
2017-Sep-19 11:31N 34°43' W 076°42'1 1.3
2017-Sep-19 11:01N 34°43' W 076°41'0 0.1
2017-Sep-19 10:31N 34°43' W 076°41'0 0.0
2017-Sep-19 10:01N 34°43' W 076°41'0 0.0
2017-Sep-19 09:31N 34°43' W 076°41'0 0.0
2017-Sep-19 09:01N 34°43' W 076°41'0 0.0
2017-Sep-19 08:31N 34°43' W 076°41'2 3.4
2017-Sep-19 08:01N 34°44' W 076°41'4 7.4
2017-Sep-19 07:31N 34°48' W 076°41'4 8.7
2017-Sep-19 07:00N 34°52' W 076°42'4 8.0
2017-Sep-19 06:31N 34°56' W 076°39'3 0.3
2017-Sep-18 19:36N 34°59' W 076°42'1 7.7
2017-Sep-18 19:28N 34°58' W 076°41'3 6.6
2017-Sep-18 19:00N 34°55' W 076°40'3 5.7
2017-Sep-18 18:31N 34°53' W 076°42'3 5.5
2017-Sep-18 18:00N 34°50' W 076°41'3 5.2
2017-Sep-18 17:30N 34°47' W 076°41'3 6.0
2017-Sep-18 17:01N 34°44' W 076°41'1 1.9
2017-Sep-18 16:30N 34°43' W 076°42'0 0.0
2017-Sep-18 16:01N 34°43' W 076°42'3 5.6
2017-Sep-18 15:31N 34°46' W 076°41'3 6.6
2017-Sep-18 15:01N 34°49' W 076°41'3 6.3
2017-Sep-18 14:31N 34°53' W 076°42'3 5.4
2017-Sep-18 13:59N 34°55' W 076°40'3 5.5
2017-Sep-18 13:30N 34°57' W 076°41'1 0.1
2017-Sep-17 23:27N 34°58' W 076°42'3 6.8
2017-Sep-17 23:00N 34°56' W 076°39'3 6.6
2017-Sep-17 22:30N 34°53' W 076°41'3 6.9
2017-Sep-17 22:00N 34°50' W 076°41'3 6.8
2017-Sep-17 21:31N 34°46' W 076°41'3 6.8
2017-Sep-17 21:00N 34°43' W 076°42'0 0.8
2017-Sep-17 20:30N 34°43' W 076°42'0 0.0
2017-Sep-17 20:00N 34°43' W 076°42'0 0.0
2017-Sep-17 19:30N 34°43' W 076°42'0 0.0
2017-Sep-17 19:01N 34°43' W 076°42'0 0.0
2017-Sep-17 18:30N 34°43' W 076°42'0 0.0
2017-Sep-17 18:01N 34°43' W 076°42'0 0.0
2017-Sep-17 17:31N 34°43' W 076°42'0 0.0
2017-Sep-17 17:01N 34°43' W 076°42'0 0.0
2017-Sep-17 16:31N 34°43' W 076°42'0 0.0
2017-Sep-17 16:01N 34°43' W 076°42'0 0.0
2017-Sep-17 15:31N 34°43' W 076°42'0 0.0
2017-Sep-17 15:01N 34°43' W 076°42'0 0.0
2017-Sep-17 14:31N 34°43' W 076°42'0 0.0
2017-Sep-17 14:01N 34°43' W 076°42'0 0.0
2017-Sep-17 13:30N 34°43' W 076°42'0 0.0
2017-Sep-17 13:01N 34°43' W 076°42'0 0.0
2017-Sep-17 12:30N 34°43' W 076°42'0 0.0
2017-Sep-17 12:01N 34°43' W 076°42'0 0.0
2017-Sep-17 11:30N 34°43' W 076°42'0 0.0
2017-Sep-17 11:01N 34°43' W 076°42'0 0.0
2017-Sep-17 10:30N 34°43' W 076°42'0 0.0
2017-Sep-17 10:01N 34°43' W 076°42'0 0.0
2017-Sep-17 09:31N 34°43' W 076°42'0 0.0
2017-Sep-17 09:01N 34°43' W 076°42'0 0.0
2017-Sep-17 08:30N 34°43' W 076°42'1 1.1
2017-Sep-17 08:01N 34°43' W 076°41'0 0.1
2017-Sep-17 07:31N 34°43' W 076°41'1 2.8
2017-Sep-17 07:00N 34°44' W 076°41'3 6.8
2017-Sep-17 06:31N 34°48' W 076°41'4 8.6
2017-Sep-17 06:00N 34°52' W 076°41'4 7.9
2017-Sep-17 05:30N 34°55' W 076°39'4 7.4
2017-Sep-17 04:58N 34°59' W 076°41'9 8.6
2017-Sep-17 03:56N 35°04' W 076°33'8 6.2
2017-Sep-17 02:37N 35°12' W 076°35'15 1.4
2017-Sep-16 15:58N 34°59' W 076°42'3 6.7
2017-Sep-16 15:30N 34°56' W 076°39'3 6.0
2017-Sep-16 15:00N 34°54' W 076°41'3 5.5
2017-Sep-16 14:30N 34°51' W 076°41'3 5.4
2017-Sep-16 14:00N 34°48' W 076°41'3 5.7
2017-Sep-16 13:31N 34°45' W 076°40'2 4.5
2017-Sep-16 13:00N 34°43' W 076°42'0 0.2
2017-Sep-16 12:31N 34°43' W 076°42'0 0.2
2017-Sep-16 12:01N 34°43' W 076°42'2 4.4
2017-Sep-16 11:31N 34°45' W 076°40'3 5.8
2017-Sep-16 11:00N 34°48' W 076°41'2 4.4
2017-Sep-16 10:30N 34°50' W 076°41'1 1.7
2017-Sep-16 09:59N 34°51' W 076°41'0 0.6
2017-Sep-16 09:30N 34°52' W 076°41'2 4.5
2017-Sep-16 08:58N 34°54' W 076°41'3 5.6
2017-Sep-16 08:30N 34°56' W 076°39'3 6.4
2017-Sep-16 08:01N 34°59' W 076°41'6 7.2
2017-Sep-16 07:14N 35°03' W 076°36'8 6.7
2017-Sep-16 06:02N 35°09' W 076°30'0 7.6
2017-Sep-16 06:01N 35°09' W 076°31'4 7.5
2017-Sep-16 05:31N 35°11' W 076°34'3 5.7
2017-Sep-16 05:01N 35°14' W 076°35'3 5.7
2017-Sep-16 04:30N 35°17' W 076°37'3 6.7
2017-Sep-16 04:00N 35°20' W 076°37'3 5.4
2017-Sep-16 03:27N 35°23' W 076°38'25 3.3
2017-Sep-15 19:38N 34°57' W 076°41'1 7.3
2017-Sep-15 19:30N 34°57' W 076°40'3 5.8
2017-Sep-15 18:59N 34°54' W 076°41'3 6.0
2017-Sep-15 18:31N 34°51' W 076°41'3 5.7
2017-Sep-15 18:01N 34°48' W 076°41'3 6.8
2017-Sep-15 17:31N 34°45' W 076°41'2 3.4
2017-Sep-15 17:00N 34°43' W 076°42'0 0.0
2017-Sep-15 16:31N 34°43' W 076°42'2 3.9
2017-Sep-15 16:01N 34°45' W 076°41'3 5.7
2017-Sep-15 15:30N 34°48' W 076°41'3 6.3
2017-Sep-15 15:00N 34°51' W 076°41'3 6.1
2017-Sep-15 14:31N 34°54' W 076°41'3 5.7
2017-Sep-15 14:01N 34°57' W 076°40'11 5.8
2017-Sep-15 12:11N 35°05' W 076°32'2 7.3
2017-Sep-15 11:58N 35°07' W 076°31'3 6.0
2017-Sep-15 11:29N 35°09' W 076°31'14 1.4
2017-Sep-15 01:37N 34°58' W 076°41'1 7.4
2017-Sep-15 01:30N 34°58' W 076°41'3 6.6
2017-Sep-15 01:00N 34°54' W 076°40'3 6.3
2017-Sep-15 00:30N 34°51' W 076°41'4 7.3
2017-Sep-15 00:00N 34°48' W 076°41'4 7.1
2017-Sep-14 23:30N 34°44' W 076°41'1 2.2
2017-Sep-14 23:00N 34°43' W 076°42'0 0.0
2017-Sep-14 22:30N 34°43' W 076°42'1 1.7
2017-Sep-14 22:00N 34°44' W 076°41'3 6.0
2017-Sep-14 21:30N 34°47' W 076°41'2 4.8
2017-Sep-14 21:00N 34°49' W 076°41'  

Dump ship's entire track history